Elkhorn, West Virginia
Current Conditions -  °F | °C
As of 3:52 AM on Monday 24 Nov 2014 (Local Time) from KBLF Reporting Station
Broken Clouds Broken Clouds  
Wind Chill: 15°   Ceiling: 3200
Heat Index: 15°   Visibility: 10mi
Dew Point:   Wind: 13mph
Humidity: 64%   Direction: 230°SW
Pressure: 29.65"   Gusts: 18mph
Location:  37.39°N, 81.41°W
Report Text: KBLF 240852Z AUTO 23011G16KT 10SM BKN032 15/08 A2965 RMK AO2 SLP023 T01500083 53009
Loading
Personal Weather Stations






























Interactive Weather Map New forecast layout! Learn more

10-Day Weather Forecast

Advertisements
Track Severe Weather on mobile